Search for airport 
image banner adimage banner ad
image banner ad

FQNP - Nampula / International

Situé à Nampula, Mozambique

ICAO - FQNP, IATA - APL

Données fournies par Airmate  

Information générale

Coordonnées: S15°6'10" E39°17'4"
Élévation : 1444 feet MSL.
 
Voir autres Aéroports à Nampula Province

Données opérationnelles

Special qualification required
Heure actuelle UTC:
Heure actuelle locale:
Météo
METAR: FQNP 061500Z 06012KT 2000 +RA OVC010 FEW025CB 22/22 Q1012 RMK CB TO N/W/S
TAF: TAF FQNP 061000Z 0612/0718 17010KT 9999 SCT020 FEW030CB TX27/0613Z TN23/0703Z PROB30 TEMPO 0613/0619 5000 -TSRA SCT015 FEW025CB BECMG 0618/0620 24008KT 9999 SCT015 BKN020 PROB30 TEMPO 0703/0708 5000 RADZ SCT012 BKN018 BECMG 0710/0712 16010KT 9999 BKN020
Voir NOTAMs / SUP AIP / TFR affectant cet aéroport [VIEW]
Fréquences de communication: [VIEW]

Pistes:

Identifiant RWYQFULongueur (ft)Largeur (ft)SurfaceLDA (ft)
0546°6562148ASP
23226°6562148
1300
3100

Coordonnées de l'aéroport

Adresse: Nampula Mozambique

Vue satellite de FQNP